CheckWX is a tool to help pilots better visualize weather data.  It is not intended as a substitute for an official pre-flight weather briefing.

01:14:09 UTC

DNIB METAR
Ibadan Airport
Ibadan, Nigeria
Current

15 hours ago

DNIB 181000Z 27008KT 9999 FEW011 29/23 Q1016
Observed
Jun-18 @ 10:00 UTC
Wind
  • 270° at 8 KTS
Visibility
10,000+ meters
Flight Rules
VFR
Cloud Levels
  • Few at 1,100' AGL
Temperature
29°C / 84°F
Dewpoint
23°C / 73°F
Heat Index
32°C / 90°F
Humidity
70%
Altimeter
30" Hg
Pressure
1015.92 hPa